Time;durP1;ratioP1;P1;durP2;ratioP2;P2;SDS_P1;SDS_P2;PMS_P1;PMS_P2;Temp;Humidity;BMP_temperature;BMP_pressure;BME280_temperature;BME280_humidity;BME280_pressure;Samples;Min_cycle;Max_cycle;Signal;HPM_P1;HPM_P2
2022/06/15 00:00:38;;;;;;;;;;;;;;;14.91;72.12;101935.50;5074963;28;19927;-80
2022/06/15 00:03:03;;;;;;;;;;;;;;;14.89;72.37;101926.72;5065659;28;19921;-81
2022/06/15 00:05:28;;;;;;;;;;;;;;;14.86;72.61;101932.50;5060675;28;19917;-80
2022/06/15 00:07:54;;;;;;;;;;;;;;;14.77;72.89;101933.59;5070852;28;19928;-80
2022/06/15 00:10:19;;;;;;;;;;;;;;;14.71;73.20;101929.75;5059755;28;19921;-82
2022/06/15 00:12:45;;;;;;;;;;;;;;;14.67;73.39;101923.03;5068968;28;20296;-81
2022/06/15 00:15:10;;;;;;;;;;;;;;;14.76;73.58;101923.78;5074169;28;19924;-82
2022/06/15 00:17:35;;;;;;;;;;;;;;;14.73;73.43;101922.28;5058656;28;19917;-81
2022/06/15 00:20:01;;;;;;;;;;;;;;;14.71;73.79;101930.59;5063156;28;19970;-81
2022/06/15 00:22:26;;;;;;;;;;;;;;;14.69;73.76;101929.09;5073893;28;19916;-81
2022/06/15 00:24:51;;;;;;;;;;;;;;;14.67;73.83;101940.13;5056321;28;19924;-81
2022/06/15 00:27:16;;;;;;;;;;;;;;;14.65;74.09;101925.91;5067237;28;19920;-81
2022/06/15 00:29:41;;;;;;;;;;;;;;;14.60;74.23;101925.63;5065099;28;19978;-81
2022/06/15 00:32:07;;;;;;;;;;;;;;;14.60;74.34;101924.78;5056346;28;19917;-81
2022/06/15 00:34:32;;;;;;;;;;;;;;;14.62;74.68;101925.44;5071228;28;19990;-81
2022/06/15 00:36:57;;;;;;;;;;;;;;;14.61;74.86;101923.75;5071000;28;19952;-81
2022/06/15 00:39:22;;;;;;;;;;;;;;;14.53;74.92;101927.34;5068110;28;19929;-80
2022/06/15 00:41:48;;;;;;;;;;;;;;;14.47;75.24;101931.59;5064392;28;19917;-80
2022/06/15 00:44:19;;;;;;;;;;;;;;;14.50;75.41;101925.81;5058497;28;19932;-79
2022/06/15 00:46:45;;;;;;;;;;;;;;;14.50;75.51;101927.69;5074019;28;19926;-80
2022/06/15 00:49:20;;;;;;;;;;;;;;;14.51;75.74;101921.25;5070670;28;20011;-80
2022/06/15 00:51:45;;;;;;;;;;;;;;;14.48;75.73;101925.19;5076404;28;19920;-79
2022/06/15 00:54:10;;;;;;;;;;;;;;;14.47;75.99;101917.22;5077735;28;19970;-79
2022/06/15 00:56:36;;;;;;;;;;;;;;;14.44;76.27;101921.13;5070997;28;19931;-80
2022/06/15 00:59:03;;;;;;;;;;;;;;;14.41;76.35;101921.50;5068373;28;19924;-80
2022/06/15 01:01:28;;;;;;;;;;;;;;;14.36;76.69;101917.66;5072156;28;20291;-82
2022/06/15 01:03:54;;;;;;;;;;;;;;;14.36;76.69;101914.94;5058864;28;19928;-80
2022/06/15 01:06:22;;;;;;;;;;;;;;;14.31;76.96;101918.19;5067586;28;19920;-81
2022/06/15 01:09:13;;;;;;;;;;;;;;;14.34;76.95;101907.00;5055371;28;20483;-81
2022/06/15 01:11:57;;;;;;;;;;;;;;;14.29;77.08;101903.97;5074985;28;20012;-81
2022/06/15 01:14:45;;;;;;;;;;;;;;;14.25;77.39;101903.50;5065832;28;20007;-81
2022/06/15 01:17:13;;;;;;;;;;;;;;;14.24;77.32;101901.84;5069331;28;19924;-82
2022/06/15 01:19:44;;;;;;;;;;;;;;;14.23;77.45;101910.13;5068025;28;19924;-81
2022/06/15 01:22:28;;;;;;;;;;;;;;;14.20;77.62;101913.19;5071966;28;19961;-80
2022/06/15 01:25:00;;;;;;;;;;;;;;;14.17;77.73;101908.97;5071154;28;19970;-82
2022/06/15 01:27:30;;;;;;;;;;;;;;;14.18;77.65;101902.53;5065496;28;20440;-83
2022/06/15 01:30:14;;;;;;;;;;;;;;;14.18;77.33;101902.53;5056282;28;19966;-80
2022/06/15 01:32:45;;;;;;;;;;;;;;;14.15;77.52;101908.31;5069579;28;19970;-80
2022/06/15 01:35:10;;;;;;;;;;;;;;;14.15;77.52;101902.91;5062919;28;19924;-82
2022/06/15 01:37:51;;;;;;;;;;;;;;;14.15;77.72;101902.91;5061553;28;19932;-82
2022/06/15 01:40:28;;;;;;;;;;;;;;;14.16;77.58;101896.44;5070754;28;19935;-82
2022/06/15 01:42:55;;;;;;;;;;;;;;;14.13;77.71;101902.22;5074494;28;19923;-83
2022/06/15 01:45:21;;;;;;;;;;;;;;;14.10;77.87;101899.06;5074351;28;19928;-82
2022/06/15 01:47:46;;;;;;;;;;;;;;;14.11;78.15;101903.44;5073959;28;19920;-81
2022/06/15 01:50:14;;;;;;;;;;;;;;;14.08;78.20;101895.69;5072090;28;19920;-82
2022/06/15 01:52:43;;;;;;;;;;;;;;;14.12;78.06;101897.84;5078007;28;20410;-83
2022/06/15 01:55:12;;;;;;;;;;;;;;;14.11;78.06;101890.72;5070165;28;19920;-82
2022/06/15 01:57:38;;;;;;;;;;;;;;;14.09;78.42;101889.25;5064129;28;19920;-83
2022/06/15 02:00:08;;;;;;;;;;;;;;;14.08;78.43;101888.38;5057307;28;19981;-83
2022/06/15 02:02:53;;;;;;;;;;;;;;;14.10;78.33;101888.22;5068621;28;19928;-82
2022/06/15 02:05:19;;;;;;;;;;;;;;;14.08;78.46;101880.25;5067872;28;20015;-82
2022/06/15 02:07:53;;;;;;;;;;;;;;;14.05;78.63;101876.06;5077087;28;20408;-82
2022/06/15 02:10:28;;;;;;;;;;;;;;;14.04;78.84;101878.97;5070123;28;19948;-82
2022/06/15 02:13:08;;;;;;;;;;;;;;;14.06;78.81;101876.91;5067886;28;19939;-83
2022/06/15 02:15:33;;;;;;;;;;;;;;;14.02;78.88;101876.41;5059786;28;19927;-82
2022/06/15 02:18:00;;;;;;;;;;;;;;;14.00;79.25;101883.03;5061861;28;19917;-82
2022/06/15 02:20:28;;;;;;;;;;;;;;;13.95;79.36;101875.44;5075047;28;20376;-82
2022/06/15 02:22:53;;;;;;;;;;;;;;;13.96;79.44;101870.91;5074142;28;19932;-82
2022/06/15 02:25:19;;;;;;;;;;;;;;;13.89;79.67;101867.22;5069791;28;19920;-83
2022/06/15 02:27:44;;;;;;;;;;;;;;;13.89;79.98;101868.03;5038378;28;19921;-84
2022/06/15 02:30:12;;;;;;;;;;;;;;;13.87;80.07;101867.38;5060916;28;20081;-83
2022/06/15 02:35:06;;;;;;;;;;;;;;;13.84;80.35;101868.56;5045814;28;19936;-76
2022/06/15 02:37:31;;;;;;;;;;;;;;;13.84;80.42;101868.56;5051993;28;19969;-77
2022/06/15 02:39:56;;;;;;;;;;;;;;;13.75;80.64;101858.00;5057419;28;19928;-76
2022/06/15 02:42:27;;;;;;;;;;;;;;;13.74;80.76;101865.25;5040378;28;19917;-78
2022/06/15 02:44:53;;;;;;;;;;;;;;;13.75;80.98;101868.81;5036252;28;20423;-76
2022/06/15 02:47:18;;;;;;;;;;;;;;;13.71;81.08;101859.38;5039482;28;19922;-76
2022/06/15 02:49:44;;;;;;;;;;;;;;;13.66;81.19;101856.34;5041072;28;20385;-75
2022/06/15 02:52:09;;;;;;;;;;;;;;;13.61;81.16;101863.16;5038807;28;20537;-76
2022/06/15 02:54:36;;;;;;;;;;;;;;;13.63;81.56;101859.41;5019424;28;20395;-76
2022/06/15 02:57:01;;;;;;;;;;;;;;;13.59;81.46;101861.63;5041682;28;20230;-77
2022/06/15 02:59:27;;;;;;;;;;;;;;;13.55;81.77;101857.59;5036355;28;19951;-76
2022/06/15 03:01:53;;;;;;;;;;;;;;;13.55;81.88;101857.59;5037346;28;19993;-77
2022/06/15 03:04:18;;;;;;;;;;;;;;;13.54;82.00;101855.91;5052153;28;19949;-76
2022/06/15 03:06:43;;;;;;;;;;;;;;;13.48;82.23;101860.16;5053956;28;19943;-77
2022/06/15 03:09:09;;;;;;;;;;;;;;;13.46;82.22;101859.50;5016134;28;20351;-76
2022/06/15 03:11:34;;;;;;;;;;;;;;;13.38;82.40;101856.84;5014967;28;19921;-76
2022/06/15 03:13:59;;;;;;;;;;;;;;;13.35;82.58;101851.78;5033649;28;19921;-76
2022/06/15 03:16:24;;;;;;;;;;;;;;;13.36;82.79;101854.28;5032084;28;20055;-76
2022/06/15 03:18:50;;;;;;;;;;;;;;;13.31;82.66;101855.84;5033868;28;19939;-75
2022/06/15 03:21:15;;;;;;;;;;;;;;;13.25;83.12;101857.34;5016946;28;19964;-75
2022/06/15 03:23:40;;;;;;;;;;;;;;;13.20;83.30;101854.34;5020591;28;19921;-75
2022/06/15 03:26:06;;;;;;;;;;;;;;;13.22;83.49;101857.72;5033432;28;19928;-76
2022/06/15 03:28:34;;;;;;;;;;;;;;;13.24;83.64;101866.47;5017234;28;19921;-76
2022/06/15 03:30:59;;;;;;;;;;;;;;;13.29;83.24;101858.72;5016890;28;19921;-75
2022/06/15 03:33:24;;;;;;;;;;;;;;;13.25;83.31;101867.34;5034929;28;20501;-76
2022/06/15 03:35:49;;;;;;;;;;;;;;;13.27;83.20;101863.47;5020298;28;20013;-76
2022/06/15 03:38:15;;;;;;;;;;;;;;;13.23;83.52;101870.19;5048987;28;19916;-77
2022/06/15 03:40:41;;;;;;;;;;;;;;;13.25;83.43;101870.88;5036729;28;20016;-77
2022/06/15 03:43:07;;;;;;;;;;;;;;;13.27;83.46;101870.72;5034147;28;19927;-78
2022/06/15 03:45:32;;;;;;;;;;;;;;;13.25;83.35;101865.47;5034691;28;19979;-78
2022/06/15 03:47:58;;;;;;;;;;;;;;;13.19;83.36;101874.25;5033327;28;20391;-78
2022/06/15 03:50:23;;;;;;;;;;;;;;;13.16;83.78;101871.91;5016285;28;19921;-78
2022/06/15 03:52:49;;;;;;;;;;;;;;;13.15;84.04;101870.22;5033624;28;19960;-77
2022/06/15 03:55:14;;;;;;;;;;;;;;;13.22;83.70;101868.53;5034243;28;20020;-78
2022/06/15 03:57:39;;;;;;;;;;;;;;;13.26;83.47;101869.00;5042100;28;19979;-78
2022/06/15 04:00:05;;;;;;;;;;;;;;;13.31;83.42;101872.06;5025190;28;19921;-76
2022/06/15 04:02:30;;;;;;;;;;;;;;;13.36;83.05;101872.38;5043079;28;19925;-78
2022/06/15 04:04:55;;;;;;;;;;;;;;;13.39;82.63;101872.88;5026027;28;19932;-76
2022/06/15 04:10:05;;;;;;;;;;;;;;;13.47;82.49;101865.75;5030657;28;19928;-77
2022/06/15 04:12:30;;;;;;;;;;;;;;;13.44;82.38;101866.94;5030822;28;20016;-77
2022/06/15 04:14:55;;;;;;;;;;;;;;;13.50;82.46;101865.38;5030615;28;19921;-77
2022/06/15 04:17:20;;;;;;;;;;;;;;;13.55;82.03;101868.41;5034754;28;19929;-77
2022/06/15 04:20:31;;;;;;;;;;;;;;;13.60;81.74;101863.31;5033888;28;20377;-75
2022/06/15 04:22:34;;;;;;;;;;;;;;;13.66;81.72;101869.88;5033588;28;19918;-75
2022/06/15 04:24:59;;;;;;;;;;;;;;;13.71;81.35;101867.47;5032869;28;19925;-77
2022/06/15 04:27:25;;;;;;;;;;;;;;;13.78;80.72;101869.31;5048522;28;19976;-79
2022/06/15 04:29:50;;;;;;;;;;;;;;;13.84;80.37;101873.16;5042030;28;19921;-77
2022/06/15 04:32:15;;;;;;;;;;;;;;;13.93;80.17;101876.63;5043694;28;19932;-76
2022/06/15 04:34:41;;;;;;;;;;;;;;;13.96;79.94;101870.91;5022680;28;20009;-76
2022/06/15 04:37:06;;;;;;;;;;;;;;;14.02;79.79;101871.00;5042433;28;19921;-76
2022/06/15 04:39:31;;;;;;;;;;;;;;;14.09;79.09;101868.44;5045361;28;19926;-75
2022/06/15 04:41:56;;;;;;;;;;;;;;;14.15;78.74;101864.16;5041912;28;19921;-77
2022/06/15 04:44:22;;;;;;;;;;;;;;;14.18;78.80;101869.22;5037797;28;19918;-76
2022/06/15 04:46:47;;;;;;;;;;;;;;;14.23;78.43;101867.63;5047637;28;19925;-77
2022/06/15 04:49:13;;;;;;;;;;;;;;;14.28;78.51;101869.81;5051223;28;19927;-79
2022/06/15 04:51:39;;;;;;;;;;;;;;;14.35;77.98;101869.91;5048630;28;19921;-76
2022/06/15 04:54:09;;;;;;;;;;;;;;;14.38;77.56;101865.00;5048791;28;19940;-77
2022/06/15 04:56:34;;;;;;;;;;;;;;;14.39;77.61;101866.66;5044244;28;19993;-80
2022/06/15 04:59:00;;;;;;;;;;;;;;;14.39;77.39;101873.97;5052956;28;19934;-80
2022/06/15 05:01:25;;;;;;;;;;;;;;;14.44;77.17;101871.53;5053037;28;19920;-79
2022/06/15 05:03:50;;;;;;;;;;;;;;;14.46;77.30;101872.22;5050422;28;19913;-78
2022/06/15 05:06:21;;;;;;;;;;;;;;;14.55;76.93;101873.84;5023837;28;19929;-78
2022/06/15 05:08:47;;;;;;;;;;;;;;;14.65;76.67;101881.72;5044857;28;20008;-79
2022/06/15 05:11:12;;;;;;;;;;;;;;;14.73;76.59;101867.25;5043835;28;19924;-79
2022/06/15 05:13:37;;;;;;;;;;;;;;;14.81;75.95;101873.44;5049210;28;19918;-78
2022/06/15 05:16:03;;;;;;;;;;;;;;;14.87;75.31;101879.97;5046665;28;19928;-79
2022/06/15 05:18:28;;;;;;;;;;;;;;;14.95;75.08;101877.19;5046108;28;19921;-79
2022/06/15 05:20:53;;;;;;;;;;;;;;;15.02;74.66;101874.56;5045624;28;19917;-79
2022/06/15 05:23:19;;;;;;;;;;;;;;;15.07;74.30;101870.28;5044191;28;19952;-78
2022/06/15 05:25:44;;;;;;;;;;;;;;;15.14;73.69;101873.09;5022469;28;20304;-78
2022/06/15 05:28:12;;;;;;;;;;;;;;;15.24;73.32;101864.66;5040031;28;19959;-78
2022/06/15 05:30:37;;;;;;;;;;;;;;;15.35;73.82;101872.34;5029027;28;20421;-78
2022/06/15 05:33:02;;;;;;;;;;;;;;;15.46;73.36;101877.28;5040883;28;19921;-78
2022/06/15 05:35:29;;;;;;;;;;;;;;;15.54;72.90;101876.34;5037336;28;20337;-79
2022/06/15 05:37:54;;;;;;;;;;;;;;;15.65;71.11;101877.72;5038757;28;20015;-78
2022/06/15 05:40:19;;;;;;;;;;;;;;;15.70;71.20;101886.16;5051335;28;19925;-80
2022/06/15 05:42:44;;;;;;;;;;;;;;;15.69;71.26;101884.47;5057107;28;20011;-80
2022/06/15 05:45:10;;;;;;;;;;;;;;;15.83;71.03;101878.19;5057314;28;19932;-79
2022/06/15 05:47:35;;;;;;;;;;;;;;;15.95;70.92;101878.50;5053503;28;19920;-77
2022/06/15 05:50:00;;;;;;;;;;;;;;;16.05;69.17;101886.34;5037543;28;19922;-78
2022/06/15 05:52:26;;;;;;;;;;;;;;;16.09;68.78;101885.78;5040066;28;19921;-77
2022/06/15 05:54:51;;;;;;;;;;;;;;;16.17;69.08;101887.53;5057560;28;19941;-81
2022/06/15 05:57:18;;;;;;;;;;;;;;;16.25;68.61;101887.41;5055469;28;19972;-79
2022/06/15 05:59:43;;;;;;;;;;;;;;;16.36;67.67;101889.59;5055198;28;19921;-81
2022/06/15 06:02:10;;;;;;;;;;;;;;;16.46;67.93;101886.53;5057030;28;19932;-82
2022/06/15 06:04:35;;;;;;;;;;;;;;;16.55;66.86;101884.53;5049165;28;19999;-82
2022/06/15 06:07:00;;;;;;;;;;;;;;;16.62;66.47;101885.44;5053392;28;20153;-83
2022/06/15 06:09:27;;;;;;;;;;;;;;;16.73;66.58;101890.31;5055973;28;19937;-82
2022/06/15 06:11:52;;;;;;;;;;;;;;;16.80;66.78;101888.53;5057879;28;19913;-83
2022/06/15 06:14:18;;;;;;;;;;;;;;;16.89;66.61;101887.31;5047210;28;20020;-82
2022/06/15 06:16:43;;;;;;;;;;;;;;;17.05;65.49;101885.34;5051755;28;19913;-82
2022/06/15 06:19:08;;;;;;;;;;;;;;;17.14;64.46;101889.59;5057614;28;19909;-81
2022/06/15 06:21:34;;;;;;;;;;;;;;;17.18;64.86;101884.59;5057568;28;19909;-82
2022/06/15 06:23:59;;;;;;;;;;;;;;;17.43;65.35;101883.06;5054487;28;19925;-82
2022/06/15 06:26:29;;;;;;;;;;;;;;;17.59;63.07;101881.88;5049299;28;19913;-83
2022/06/15 06:28:56;;;;;;;;;;;;;;;17.75;63.14;101892.41;5054222;28;20004;-81
2022/06/15 06:31:21;;;;;;;;;;;;;;;17.95;63.53;101891.66;5032492;28;19977;-82
2022/06/15 06:33:47;;;;;;;;;;;;;;;18.21;62.94;101885.41;5051977;28;19933;-82
2022/06/15 06:36:17;;;;;;;;;;;;;;;18.36;61.77;101894.25;5040178;28;20000;-80
2022/06/15 06:38:45;;;;;;;;;;;;;;;18.54;61.64;101885.47;5025746;28;19956;-80
2022/06/15 06:41:19;;;;;;;;;;;;;;;18.70;60.55;101895.09;5031263;28;19925;-80
2022/06/15 06:43:44;;;;;;;;;;;;;;;18.86;60.74;101888.41;5024472;28;20008;-79
2022/06/15 06:46:09;;;;;;;;;;;;;;;19.04;60.34;101899.50;5025447;28;20293;-80
2022/06/15 06:48:34;;;;;;;;;;;;;;;19.19;59.64;101901.97;5033363;28;19921;-79
2022/06/15 06:51:00;;;;;;;;;;;;;;;19.39;59.18;101904.66;5026291;28;19913;-78
2022/06/15 06:53:25;;;;;;;;;;;;;;;19.47;56.93;101898.97;5033838;28;19929;-79
2022/06/15 06:55:50;;;;;;;;;;;;;;;19.48;56.88;101900.66;5028983;28;19936;-79
2022/06/15 06:58:15;;;;;;;;;;;;;;;19.62;55.92;101906.91;5027326;28;19921;-77
2022/06/15 07:00:40;;;;;;;;;;;;;;;20.08;56.25;101908.59;5027417;28;20398;-79
2022/06/15 07:03:06;;;;;;;;;;;;;;;20.74;54.61;101899.09;5034107;28;19905;-78
2022/06/15 07:05:34;;;;;;;;;;;;;;;21.90;49.85;101910.25;5037781;28;20430;-79
2022/06/15 07:07:59;;;;;;;;;;;;;;;23.02;48.24;101901.38;5041612;28;19978;-80
2022/06/15 07:10:26;;;;;;;;;;;;;;;23.88;43.93;101910.66;5035424;28;20384;-77
2022/06/15 07:12:52;;;;;;;;;;;;;;;25.08;41.19;101921.53;5035788;28;19917;-79
2022/06/15 07:15:17;;;;;;;;;;;;;;;25.61;40.98;101917.31;5045250;28;19940;-81
2022/06/15 07:17:43;;;;;;;;;;;;;;;26.34;39.60;101919.78;5043158;28;19925;-78
2022/06/15 07:20:09;;;;;;;;;;;;;;;27.04;38.63;101928.09;5045182;28;19937;-78
2022/06/15 07:22:35;;;;;;;;;;;;;;;27.90;36.36;101924.13;5035976;28;19921;-79
2022/06/15 07:25:00;;;;;;;;;;;;;;;28.45;35.20;101928.13;5054453;28;20043;-79
2022/06/15 07:27:25;;;;;;;;;;;;;;;29.35;32.45;101935.78;5043642;28;19956;-80
2022/06/15 07:29:52;;;;;;;;;;;;;;;29.60;31.55;101928.50;5036933;28;20448;-81
2022/06/15 07:32:17;;;;;;;;;;;;;;;29.10;32.34;101932.00;5017299;28;19976;-78
2022/06/15 07:34:42;;;;;;;;;;;;;;;29.36;31.68;101934.69;5040580;28;20047;-79
2022/06/15 07:37:07;;;;;;;;;;;;;;;29.26;31.46;101935.56;5023377;28;19957;-80
2022/06/15 07:39:33;;;;;;;;;;;;;;;28.54;33.38;101937.56;5051465;28;19983;-79
2022/06/15 07:41:58;;;;;;;;;;;;;;;29.55;31.58;101934.91;5054152;28;20014;-78
2022/06/15 07:44:24;;;;;;;;;;;;;;;30.12;29.96;101935.44;5053079;28;19948;-80
2022/06/15 07:49:54;;;;;;;;;;;;;;;30.30;30.18;101929.25;5052629;28;20006;-79
2022/06/15 07:52:19;;;;;;;;;;;;;;;30.47;28.32;101928.03;5038919;28;19987;-78
2022/06/15 07:54:44;;;;;;;;;;;;;;;30.33;28.32;101931.47;5036732;28;19913;-79
2022/06/15 07:57:09;;;;;;;;;;;;;;;30.18;28.49;101923.22;5034444;28;19929;-77
2022/06/15 07:59:34;;;;;;;;;;;;;;;30.51;29.27;101920.75;5024017;28;20085;-79
2022/06/15 08:02:00;;;;;;;;;;;;;;;30.74;28.08;101931.09;5026405;28;19929;-79
2022/06/15 08:04:25;;;;;;;;;;;;;;;30.55;28.46;101933.78;5013984;28;19932;-79
2022/06/15 08:06:51;;;;;;;;;;;;;;;30.16;27.10;101931.81;5023648;28;19922;-76
2022/06/15 08:09:16;;;;;;;;;;;;;;;30.12;26.37;101932.66;5025841;28;19917;-77
2022/06/15 08:12:11;;;;;;;;;;;;;;;30.23;27.41;101933.44;5033312;28;19952;-78
2022/06/15 08:14:28;;;;;;;;;;;;;;;30.42;27.77;101928.06;5036930;28;19921;-79
2022/06/15 08:16:53;;;;;;;;;;;;;;;30.54;26.56;101932.09;5031619;28;19968;-79
2022/06/15 08:19:19;;;;;;;;;;;;;;;29.94;27.21;101929.47;5029093;28;19928;-77
2022/06/15 08:21:44;;;;;;;;;;;;;;;30.01;27.77;101925.53;5020033;28;19918;-78
2022/06/15 08:24:12;;;;;;;;;;;;;;;30.25;27.25;101926.50;5027087;28;19925;-78
2022/06/15 08:26:37;;;;;;;;;;;;;;;30.52;27.63;101931.59;5031450;28;19921;-79
2022/06/15 08:29:04;;;;;;;;;;;;;;;30.61;27.26;101934.56;5030172;28;19928;-79
2022/06/15 08:31:29;;;;;;;;;;;;;;;30.79;26.06;101927.47;5039284;28;20324;-80
2022/06/15 08:33:55;;;;;;;;;;;;;;;30.21;26.08;101932.91;5036030;28;19921;-79
2022/06/15 08:36:20;;;;;;;;;;;;;;;29.67;27.46;101924.31;5047183;28;19925;-78
2022/06/15 08:38:45;;;;;;;;;;;;;;;29.57;27.54;101940.16;5027122;28;19921;-79
2022/06/15 08:41:21;;;;;;;;;;;;;;;29.79;27.27;101937.88;5040813;28;19921;-80
2022/06/15 08:44:06;;;;;;;;;;;;;;;29.88;25.96;101940.88;5027182;28;19921;-77
2022/06/15 08:46:31;;;;;;;;;;;;;;;29.64;26.59;101930.44;5034724;28;19929;-78
2022/06/15 08:48:56;;;;;;;;;;;;;;;29.75;26.87;101934.84;5029100;28;19992;-77
2022/06/15 08:51:27;;;;;;;;;;;;;;;29.72;26.95;101926.25;5044438;28;19929;-78
2022/06/15 08:54:00;;;;;;;;;;;;;;;29.72;27.29;101920.69;5045141;28;19925;-78
2022/06/15 08:56:31;;;;;;;;;;;;;;;29.74;27.87;101913.75;5055687;28;19914;-78
2022/06/15 08:59:05;;;;;;;;;;;;;;;29.97;27.12;101917.78;5050828;28;19989;-80
2022/06/15 09:01:42;;;;;;;;;;;;;;;30.15;27.22;101918.25;5046852;28;20296;-79
2022/06/15 09:04:10;;;;;;;;;;;;;;;29.79;27.48;101921.22;5054666;28;19989;-80
2022/06/15 09:06:35;;;;;;;;;;;;;;;29.33;27.95;101918.59;5044956;28;19905;-81
2022/06/15 09:09:03;;;;;;;;;;;;;;;29.71;28.63;101924.59;5057704;28;19965;-81
2022/06/15 09:11:42;;;;;;;;;;;;;;;29.46;28.37;101904.13;5055706;28;19921;-82
2022/06/15 09:14:10;;;;;;;;;;;;;;;30.22;27.20;101913.16;5037990;28;19973;-82
2022/06/15 09:16:38;;;;;;;;;;;;;;;30.21;26.82;101914.31;5053306;28;19985;-81
2022/06/15 09:19:07;;;;;;;;;;;;;;;29.89;26.93;101918.41;5046432;28;19917;-79
2022/06/15 09:21:33;;;;;;;;;;;;;;;29.31;27.66;101909.75;5044007;28;19918;-78
2022/06/15 09:24:19;;;;;;;;;;;;;;;29.91;28.09;101912.53;5029524;28;19964;-79
2022/06/15 09:26:49;;;;;;;;;;;;;;;30.28;28.05;101912.06;5033089;28;19926;-81
2022/06/15 09:29:25;;;;;;;;;;;;;;;31.06;25.61;101905.50;5044133;28;19975;-80
2022/06/15 09:31:56;;;;;;;;;;;;;;;30.84;26.25;101908.81;5048327;28;19925;-80
2022/06/15 09:34:24;;;;;;;;;;;;;;;31.16;26.27;101917.66;5038279;28;20274;-81
2022/06/15 09:36:51;;;;;;;;;;;;;;;31.12;26.01;101911.03;5021232;28;19922;-83
2022/06/15 09:39:17;;;;;;;;;;;;;;;31.25;25.48;101907.53;5044848;28;19936;-83
2022/06/15 09:42:00;;;;;;;;;;;;;;;30.58;26.01;101910.97;5030409;28;19917;-81
2022/06/15 09:44:32;;;;;;;;;;;;;;;30.36;26.96;101922.56;5027624;28;20023;-81
2022/06/15 09:47:16;;;;;;;;;;;;;;;29.97;27.09;101928.88;5022162;28;19992;-80
2022/06/15 09:49:59;;;;;;;;;;;;;;;29.45;27.08;101921.91;5030187;28;20361;-80
2022/06/15 09:52:38;;;;;;;;;;;;;;;30.45;26.70;101919.16;5035125;28;19926;-81
2022/06/15 09:55:29;;;;;;;;;;;;;;;31.14;25.52;101917.94;5045595;28;19925;-80
2022/06/15 09:57:54;;;;;;;;;;;;;;;31.84;24.73;101913.78;5020565;28;19964;-79
2022/06/15 10:00:19;;;;;;;;;;;;;;;30.79;25.24;101917.16;5031741;28;20003;-81
2022/06/15 10:02:53;;;;;;;;;;;;;;;31.14;25.78;101920.72;5033205;28;20407;-79
2022/06/15 10:05:21;;;;;;;;;;;;;;;31.05;24.11;101917.78;5036778;28;19929;-81
2022/06/15 10:07:46;;;;;;;;;;;;;;;30.68;25.56;101915.63;5042871;28;20006;-80
2022/06/15 10:10:14;;;;;;;;;;;;;;;30.66;25.92;101908.69;5019703;28;19921;-79
2022/06/15 10:12:59;;;;;;;;;;;;;;;31.10;25.48;101905.78;5017782;28;19944;-79
2022/06/15 10:15:24;;;;;;;;;;;;;;;31.37;25.62;101896.00;5026566;28;19929;-79
2022/06/15 10:17:51;;;;;;;;;;;;;;;31.80;24.84;101907.13;5025167;28;19926;-78
2022/06/15 10:20:35;;;;;;;;;;;;;;;31.75;24.80;101904.41;5018379;28;20040;-79
2022/06/15 10:23:06;;;;;;;;;;;;;;;31.33;24.32;101909.66;5034429;28;19933;-79
2022/06/15 10:25:36;;;;;;;;;;;;;;;31.47;24.68;101915.38;5027041;28;19932;-81
2022/06/15 10:28:13;;;;;;;;;;;;;;;31.12;24.98;101914.63;5023182;28;19925;-80
2022/06/15 10:30:38;;;;;;;;;;;;;;;31.27;24.90;101906.09;5035388;28;20007;-77
2022/06/15 10:33:14;;;;;;;;;;;;;;;31.05;25.28;101909.44;5035799;28;19921;-77
2022/06/15 10:35:39;;;;;;;;;;;;;;;30.67;25.42;101908.38;5035208;28;19985;-77
2022/06/15 10:38:09;;;;;;;;;;;;;;;30.24;26.72;101905.41;5023928;28;19971;-76
2022/06/15 10:40:35;;;;;;;;;;;;;;;30.82;26.60;101910.22;5033111;28;20040;-77
2022/06/15 10:43:06;;;;;;;;;;;;;;;30.98;26.37;101913.69;5038217;28;19917;-76
2022/06/15 10:45:36;;;;;;;;;;;;;;;31.18;25.86;101910.69;5035594;28;20039;-76
2022/06/15 10:48:06;;;;;;;;;;;;;;;31.10;26.20;101914.09;5032757;28;19933;-79
2022/06/15 10:50:48;;;;;;;;;;;;;;;31.10;25.32;101914.09;5021858;28;19929;-80
2022/06/15 10:53:32;;;;;;;;;;;;;;;31.05;26.08;101920.53;5024321;28;19925;-79
2022/06/15 11:04:22;;;;;;;;;;;;;;;31.53;24.71;101907.78;5022358;28;19987;-80
2022/06/15 11:06:49;;;;;;;;;;;;;;;31.46;24.48;101897.00;5022155;28;19929;-79
2022/06/15 11:09:19;;;;;;;;;;;;;;;31.41;24.67;101895.16;5002595;28;20374;-78
2022/06/15 11:11:44;;;;;;;;;;;;;;;31.02;24.77;101892.50;5017399;28;20000;-79
2022/06/15 11:14:12;;;;;;;;;;;;;;;30.01;25.21;101886.66;5028340;28;20012;-81
2022/06/15 11:19:23;;;;;;;;;;;;;;;30.65;25.71;101891.19;5027398;28;19967;-76
2022/06/15 11:21:50;;;;;;;;;;;;;;;30.74;25.91;101892.19;5023843;28;19917;-76
2022/06/15 11:24:31;;;;;;;;;;;;;;;30.88;25.71;101891.53;5029190;28;19970;-76
2022/06/15 11:27:09;;;;;;;;;;;;;;;31.22;24.73;101888.66;5026593;28;19928;-78
2022/06/15 11:29:44;;;;;;;;;;;;;;;31.17;25.24;101883.16;5019695;28;19917;-77
2022/06/15 11:32:28;;;;;;;;;;;;;;;31.02;25.73;101876.66;5028933;28;19940;-78
2022/06/15 11:34:54;;;;;;;;;;;;;;;30.82;25.89;101874.91;5023308;28;19922;-79
2022/06/15 11:37:23;;;;;;;;;;;;;;;31.48;25.63;101867.75;5022707;28;20381;-78
2022/06/15 11:39:49;;;;;;;;;;;;;;;32.03;24.44;101881.19;5022525;28;19924;-75
2022/06/15 11:42:16;;;;;;;;;;;;;;;31.54;25.36;101879.66;5024756;28;19925;-77
2022/06/15 11:44:42;;;;;;;;;;;;;;;31.28;25.52;101881.91;5021461;28;20015;-77
2022/06/15 11:47:24;;;;;;;;;;;;;;;30.84;26.77;101869.91;5018929;28;19918;-76
2022/06/15 11:49:52;;;;;;;;;;;;;;;30.56;27.08;101865.16;5019720;28;19925;-76
2022/06/15 11:52:24;;;;;;;;;;;;;;;30.42;27.61;101859.44;5021731;28;19971;-77
2022/06/15 11:54:55;;;;;;;;;;;;;;;30.84;26.47;101864.34;5021962;28;19966;-76
2022/06/15 11:57:23;;;;;;;;;;;;;;;30.68;26.77;101862.00;5020701;28;19979;-76
2022/06/15 11:59:51;;;;;;;;;;;;;;;30.69;27.80;101861.69;5022605;28;20428;-76
2022/06/15 12:02:23;;;;;;;;;;;;;;;30.68;27.45;101865.59;5021209;28;20464;-76
2022/06/15 12:04:48;;;;;;;;;;;;;;;31.12;26.89;101860.97;5016059;28;20357;-76
2022/06/15 12:07:22;;;;;;;;;;;;;;;31.45;26.70;101854.47;5018874;28;19957;-74
2022/06/15 12:09:52;;;;;;;;;;;;;;;31.35;26.89;101846.22;5025051;28;19929;-76
2022/06/15 12:12:43;;;;;;;;;;;;;;;31.69;26.65;101850.78;5014563;28;19987;-78
2022/06/15 12:15:37;;;;;;;;;;;;;;;31.25;25.98;101833.28;5001281;28;19940;-78
2022/06/15 12:18:11;;;;;;;;;;;;;;;30.27;26.48;101837.38;4981132;28;19921;-78
2022/06/15 12:20:45;;;;;;;;;;;;;;;30.15;27.90;101840.50;4986438;28;19922;-77
2022/06/15 12:23:20;;;;;;;;;;;;;;;30.36;27.09;101844.78;5054621;28;19940;-79
2022/06/15 12:26:08;;;;;;;;;;;;;;;30.44;26.74;101837.78;5034027;28;20020;-79
2022/06/15 12:28:46;;;;;;;;;;;;;;;30.41;27.42;101843.88;5018070;28;19925;-77
2022/06/15 12:31:17;;;;;;;;;;;;;;;30.28;27.24;101839.00;5013468;28;19925;-77
2022/06/15 12:33:44;;;;;;;;;;;;;;;29.98;27.65;101827.84;5019005;28;20012;-76
2022/06/15 12:36:18;;;;;;;;;;;;;;;29.63;28.86;101833.63;5021612;28;19952;-77
2022/06/15 12:39:22;;;;;;;;;;;;;;;29.40;28.05;101824.84;5015785;28;20825;-78
2022/06/15 12:44:38;;;;;;;;;;;;;;;29.10;28.15;101823.88;4972704;28;19928;-77
2022/06/15 12:47:04;;;;;;;;;;;;;;;29.80;28.54;101839.63;5007351;28;20274;-77
2022/06/15 12:49:29;;;;;;;;;;;;;;;29.84;28.38;101846.28;5025068;28;19929;-78
2022/06/15 12:52:14;;;;;;;;;;;;;;;29.69;28.36;101849.97;5021263;28;19952;-76
2022/06/15 12:54:39;;;;;;;;;;;;;;;29.48;28.30;101845.63;5019246;28;20035;-78
2022/06/15 12:57:25;;;;;;;;;;;;;;;28.92;28.33;101852.19;5028821;28;19944;-77
2022/06/15 12:59:59;;;;;;;;;;;;;;;29.23;28.89;101854.91;4994104;28;19929;-79
2022/06/15 13:03:03;;;;;;;;;;;;;;;29.23;28.72;101850.19;5016552;28;19928;-77
2022/06/15 13:05:31;;;;;;;;;;;;;;;29.12;29.81;101861.56;4954515;28;20050;-78